Time;durP1;ratioP1;P1;durP2;ratioP2;P2;SDS_P1;SDS_P2;PMS_P1;PMS_P2;Temp;Humidity;BMP_temperature;BMP_pressure;BME280_temperature;BME280_humidity;BME280_pressure;Samples;Min_cycle;Max_cycle;Signal;HPM_P1;HPM_P2
2022/08/01 00:01:14;;;;;;;1.97;1.10;;;;;;;24.37;34.24;100745.09;4987834;28;20408;-59
2022/08/01 00:03:39;;;;;;;2.92;1.20;;;;;;;24.39;34.26;100752.97;4988935;28;20745;-62
2022/08/01 00:06:05;;;;;;;1.70;1.20;;;;;;;24.42;34.01;100752.47;4988937;28;20971;-60
2022/08/01 00:08:31;;;;;;;3.70;1.30;;;;;;;24.40;33.81;100754.63;4990008;28;20388;-60
2022/08/01 00:10:56;;;;;;;3.13;1.10;;;;;;;24.48;33.66;100748.69;4989917;28;20493;-60
2022/08/01 00:13:22;;;;;;;3.60;1.00;;;;;;;24.48;33.54;100750.59;4988804;28;20456;-60
2022/08/01 00:15:47;;;;;;;1.67;0.80;;;;;;;24.52;33.51;100752.50;4988523;28;20437;-60
2022/08/01 00:18:13;;;;;;;2.70;1.08;;;;;;;24.52;33.26;100757.94;4990236;28;20434;-60
2022/08/01 00:20:38;;;;;;;6.27;1.00;;;;;;;24.51;33.69;100758.22;4989985;28;20382;-60
2022/08/01 00:23:04;;;;;;;2.30;1.10;;;;;;;24.49;33.82;100749.50;4988432;28;20456;-60
2022/08/01 00:25:30;;;;;;;4.07;1.17;;;;;;;24.44;33.78;100750.31;4992614;28;20378;-61
2022/08/01 00:27:55;;;;;;;4.07;1.07;;;;;;;24.41;33.90;100748.13;4991564;28;20417;-61
2022/08/01 00:30:21;;;;;;;5.30;1.30;;;;;;;24.40;34.05;100741.09;4991523;28;20444;-60
2022/08/01 00:32:46;;;;;;;3.20;1.17;;;;;;;24.39;34.04;100748.38;4992000;28;20405;-61
2022/08/01 00:35:13;;;;;;;2.70;1.00;;;;;;;24.43;34.09;100746.78;4993426;28;20388;-61
2022/08/01 00:37:38;;;;;;;2.05;1.15;;;;;;;24.42;34.08;100744.34;4992223;28;20424;-60
2022/08/01 00:40:05;;;;;;;3.25;1.10;;;;;;;24.41;34.20;100746.22;4992115;28;20800;-60
2022/08/01 00:42:30;;;;;;;2.85;1.20;;;;;;;24.42;33.69;100744.34;4992299;28;20402;-60
2022/08/01 00:44:56;;;;;;;2.87;1.10;;;;;;;24.44;33.92;100742.19;4991106;28;20409;-60
2022/08/01 00:47:21;;;;;;;2.77;1.20;;;;;;;24.45;33.41;100751.13;4991981;28;20455;-61
2022/08/01 00:49:47;;;;;;;1.63;1.20;;;;;;;24.36;33.63;100742.66;4992950;28;20397;-61
2022/08/01 00:52:13;;;;;;;2.97;1.05;;;;;;;24.37;33.61;100745.09;4992883;28;20425;-61
2022/08/01 00:54:38;;;;;;;6.28;1.23;;;;;;;24.42;33.42;100737.03;4993128;28;20386;-60
2022/08/01 00:57:04;;;;;;;3.10;1.13;;;;;;;24.39;33.68;100740.25;4992993;28;20448;-60
2022/08/01 00:59:30;;;;;;;6.07;1.47;;;;;;;24.41;33.67;100732.66;4992932;28;20421;-61
2022/08/01 01:01:55;;;;;;;2.22;1.10;;;;;;;24.40;33.85;100733.75;4992684;28;20832;-61
2022/08/01 01:04:21;;;;;;;3.70;1.17;;;;;;;24.40;33.96;100732.94;4991769;28;20421;-59
2022/08/01 01:06:59;;;;;;;2.28;1.20;;;;;;;24.34;34.29;100739.41;4992746;28;20417;-59
2022/08/01 01:10:15;;;;;;;2.53;1.30;;;;;;;24.34;34.41;100739.41;4992806;28;20394;-59
2022/08/01 01:13:04;;;;;;;1.70;1.10;;;;;;;24.37;34.34;100738.88;5009907;28;20404;-59
2022/08/01 01:15:48;;;;;;;5.63;1.30;;;;;;;24.29;34.83;100742.06;4991382;28;20465;-59
2022/08/01 01:18:46;;;;;;;2.83;1.20;;;;;;;24.29;34.73;100742.91;4992607;28;20445;-60
2022/08/01 01:21:18;;;;;;;2.08;1.27;;;;;;;24.26;34.74;100753.44;4992553;28;20444;-60
2022/08/01 01:24:14;;;;;;;2.17;1.23;;;;;;;24.15;34.97;100760.69;4991747;28;20916;-61
2022/08/01 01:27:01;;;;;;;2.00;1.20;;;;;;;24.17;35.15;100755.81;4992007;28;20997;-59
2022/08/01 01:29:32;;;;;;;3.22;1.20;;;;;;;24.21;35.16;100754.22;4992143;28;20470;-59
2022/08/01 01:32:14;;;;;;;2.60;1.35;;;;;;;24.19;35.29;100749.06;4991661;28;20463;-59
2022/08/01 01:34:43;;;;;;;4.22;1.20;;;;;;;24.11;35.41;100748.72;4991762;28;20449;-59
2022/08/01 01:37:19;;;;;;;1.33;1.20;;;;;;;24.14;35.28;100745.50;4991907;28;20410;-60
2022/08/01 01:39:48;;;;;;;3.90;1.10;;;;;;;24.11;35.47;100741.44;4991477;28;20828;-60
2022/08/01 01:42:14;;;;;;;7.00;2.70;;;;;;;24.07;35.44;100743.00;4991422;28;20415;-59
2022/08/01 01:44:42;;;;;;;4.00;1.27;;;;;;;24.10;35.15;100744.41;4991509;28;20449;-59
2022/08/01 01:47:09;;;;;;;3.55;1.20;;;;;;;24.03;35.23;100736.47;4991615;28;20393;-60
2022/08/01 01:49:34;;;;;;;5.28;1.25;;;;;;;23.98;35.22;100744.56;4991633;28;20480;-60
2022/08/01 01:52:02;;;;;;;3.20;1.40;;;;;;;23.95;35.08;100734.25;4991794;28;20488;-60
2022/08/01 01:54:32;;;;;;;2.38;1.30;;;;;;;23.95;35.08;100721.53;4991204;28;20424;-60
2022/08/01 01:57:00;;;;;;;2.00;1.30;;;;;;;24.00;35.09;100732.41;4991163;28;20939;-59
2022/08/01 01:59:30;;;;;;;2.92;1.20;;;;;;;23.96;34.97;100727.75;4991420;28;20404;-59
2022/08/01 02:01:58;;;;;;;4.70;1.20;;;;;;;23.93;34.96;100720.16;4991199;28;20440;-59
2022/08/01 02:04:26;;;;;;;4.50;1.40;;;;;;;23.89;34.94;100724.47;4991067;28;20415;-59
2022/08/01 02:06:54;;;;;;;3.85;1.20;;;;;;;23.94;34.67;100727.22;4991278;28;20538;-60
2022/08/01 02:09:21;;;;;;;2.15;1.38;;;;;;;23.87;35.02;100724.72;4991039;28;20436;-59
2022/08/01 02:11:48;;;;;;;3.08;1.20;;;;;;;23.85;35.01;100718.75;4991234;28;20390;-59
2022/08/01 02:14:16;;;;;;;1.42;1.10;;;;;;;23.85;35.00;100716.84;4991280;28;20416;-60
2022/08/01 02:16:45;;;;;;;2.15;1.10;;;;;;;23.88;34.75;100722.81;4990790;28;20899;-59
2022/08/01 02:19:11;;;;;;;3.65;1.10;;;;;;;23.81;34.96;100715.72;4991123;28;20402;-60
2022/08/01 02:21:46;;;;;;;1.50;1.08;;;;;;;23.83;35.04;100715.47;4990853;28;20788;-61
2022/08/01 02:24:39;;;;;;;2.65;1.33;;;;;;;23.87;34.83;100718.50;4988503;28;20432;-61
2022/08/01 02:27:21;;;;;;;4.40;1.20;;;;;;;23.82;34.86;100716.53;4977934;28;20476;-60
2022/08/01 02:29:56;;;;;;;2.88;1.10;;;;;;;23.77;34.95;100716.47;4990995;28;20394;-60
2022/08/01 02:32:30;;;;;;;3.80;1.25;;;;;;;23.72;34.87;100709.13;4989986;28;20402;-60
2022/08/01 02:34:57;;;;;;;3.00;1.38;;;;;;;23.72;34.96;100717.25;4990731;28;20511;-59
2022/08/01 02:37:26;;;;;;;1.52;1.20;;;;;;;23.71;35.17;100714.81;4990814;28;20560;-60
2022/08/01 02:39:54;;;;;;;3.30;1.10;;;;;;;23.69;35.08;100700.72;4990511;28;20420;-59
2022/08/01 02:42:21;;;;;;;3.22;1.38;;;;;;;23.64;34.94;100709.59;4990210;28;20768;-60
2022/08/01 02:44:49;;;;;;;2.67;1.38;;;;;;;23.61;34.99;100705.53;4990427;28;20930;-59
2022/08/01 02:47:17;;;;;;;3.30;1.23;;;;;;;23.59;35.33;100699.56;4990457;28;20914;-60
2022/08/01 02:49:46;;;;;;;2.30;1.20;;;;;;;23.61;35.05;100700.13;4990679;28;20401;-59
2022/08/01 02:52:15;;;;;;;4.13;1.40;;;;;;;23.56;35.32;100696.56;4990447;28;20404;-61
2022/08/01 02:54:43;;;;;;;2.15;1.42;;;;;;;23.53;35.01;100695.16;4990222;28;20393;-61
2022/08/01 02:57:10;;;;;;;3.42;1.30;;;;;;;23.52;35.09;100701.66;4990355;28;20496;-60
2022/08/01 02:59:37;;;;;;;1.88;1.10;;;;;;;23.43;35.17;100689.69;4989062;28;20405;-60
2022/08/01 03:02:05;;;;;;;1.92;1.10;;;;;;;23.44;35.43;100697.53;4990066;28;20394;-61
2022/08/01 03:04:33;;;;;;;1.80;1.10;;;;;;;23.43;35.36;100701.31;4989964;28;20907;-60
2022/08/01 03:07:18;;;;;;;1.73;1.20;;;;;;;23.40;35.43;100692.88;4990448;28;20460;-60
2022/08/01 03:09:46;;;;;;;2.38;1.30;;;;;;;23.39;35.31;100683.13;4990156;28;20861;-60
2022/08/01 03:12:15;;;;;;;3.42;1.33;;;;;;;23.36;35.27;100692.56;4990354;28;20845;-60
2022/08/01 03:14:44;;;;;;;3.80;1.30;;;;;;;23.38;34.90;100693.13;4989936;28;20831;-60
2022/08/01 03:17:11;;;;;;;1.40;1.10;;;;;;;23.36;34.93;100697.19;4990133;28;20421;-61
2022/08/01 03:19:38;;;;;;;2.00;1.27;;;;;;;23.38;35.03;100681.50;4989840;28;20423;-61
2022/08/01 03:22:08;;;;;;;2.08;1.10;;;;;;;23.45;35.07;100688.34;4990545;28;20489;-60
2022/08/01 03:24:35;;;;;;;4.03;1.30;;;;;;;23.48;34.92;100698.66;4989954;28;20404;-60
2022/08/01 03:27:02;;;;;;;3.55;1.30;;;;;;;23.50;34.78;100700.25;4989910;28;20405;-61
2022/08/01 03:29:31;;;;;;;2.05;1.17;;;;;;;23.61;34.81;100704.72;4990339;28;20428;-61
2022/08/01 03:31:58;;;;;;;5.68;1.50;;;;;;;23.67;34.84;100701.78;4989855;28;20780;-61
2022/08/01 03:34:23;;;;;;;3.60;1.15;;;;;;;23.80;34.73;100710.56;4989779;28;20404;-60
2022/08/01 03:37:06;;;;;;;2.37;1.20;;;;;;;23.96;34.40;100722.34;4989729;28;20426;-60
2022/08/01 03:39:36;;;;;;;3.15;1.50;;;;;;;24.08;34.41;100714.84;4990220;28;20420;-61
2022/08/01 03:42:12;;;;;;;2.45;1.40;;;;;;;24.14;34.21;100718.41;4990162;28;20393;-61
2022/08/01 03:44:39;;;;;;;4.55;1.38;;;;;;;24.29;34.06;100709.56;4989602;28;20410;-61
2022/08/01 03:47:08;;;;;;;2.90;1.23;;;;;;;24.43;33.73;100697.19;4990150;28;20411;-61
2022/08/01 03:49:40;;;;;;;2.20;1.38;;;;;;;24.58;33.37;100715.47;4989903;28;20398;-60
2022/08/01 03:52:07;;;;;;;3.53;1.30;;;;;;;24.69;33.28;100709.00;4989698;28;20398;-60
2022/08/01 03:54:36;;;;;;;4.20;1.30;;;;;;;24.82;33.15;100715.84;4989675;28;20456;-61
2022/08/01 03:57:02;;;;;;;2.85;1.20;;;;;;;25.02;32.89;100720.50;4989873;28;20500;-61
2022/08/01 03:59:31;;;;;;;3.03;1.30;;;;;;;25.19;32.59;100721.09;4990960;28;20838;-60
2022/08/01 04:01:58;;;;;;;3.20;1.48;;;;;;;25.55;31.97;100721.19;4991381;28;20444;-61
2022/08/01 04:04:24;;;;;;;3.45;1.38;;;;;;;25.83;31.73;100719.03;4993063;28;20409;-63
2022/08/01 04:06:53;;;;;;;4.05;1.60;;;;;;;26.04;31.04;100717.16;4993542;28;20402;-61
2022/08/01 04:09:19;;;;;;;3.08;1.50;;;;;;;26.38;31.01;100713.00;4993179;28;20935;-61
2022/08/01 04:11:45;;;;;;;2.42;1.30;;;;;;;26.72;30.08;100709.66;4993172;28;20398;-62
2022/08/01 04:14:10;;;;;;;33.63;3.20;;;;;;;26.99;29.89;100712.81;4993275;28;20512;-61
2022/08/01 04:16:37;;;;;;;5.40;1.43;;;;;;;27.32;29.63;100715.91;4992573;28;20413;-61
2022/08/01 04:19:03;;;;;;;4.07;1.40;;;;;;;27.34;29.45;100718.34;4992934;28;20757;-61
2022/08/01 04:21:32;;;;;;;1.85;1.20;;;;;;;27.35;29.17;100728.94;5010372;28;20771;-61
2022/08/01 04:24:12;;;;;;;5.75;1.50;;;;;;;27.48;28.94;100726.66;5010460;28;20438;-61
2022/08/01 04:26:40;;;;;;;213.45;11.52;;;;;;;27.58;29.42;100723.88;5009919;28;20499;-60
2022/08/01 04:29:08;;;;;;;6.13;1.52;;;;;;;27.72;29.17;100730.31;5010263;28;20395;-61
2022/08/01 04:31:36;;;;;;;5.30;1.50;;;;;;;28.03;28.59;100727.34;5008777;28;20791;-61
2022/08/01 04:34:04;;;;;;;3.22;1.30;;;;;;;28.36;28.37;100730.28;4992569;28;20388;-62
2022/08/01 04:36:33;;;;;;;3.33;1.30;;;;;;;28.71;27.88;100734.53;5008807;28;20446;-61
2022/08/01 04:39:01;;;;;;;3.13;1.13;;;;;;;28.99;27.63;100726.53;5009070;28;20406;-62
2022/08/01 04:41:30;;;;;;;6.00;1.35;;;;;;;29.13;27.26;100710.25;5006102;28;20945;-61
2022/08/01 04:43:59;;;;;;;4.43;1.40;;;;;;;29.34;26.89;100721.72;5008253;28;20442;-63
2022/08/01 04:46:25;;;;;;;8.30;1.60;;;;;;;29.63;26.42;100723.47;5007652;28;20393;-63
2022/08/01 04:48:50;;;;;;;4.30;1.40;;;;;;;30.05;25.91;100718.94;5008332;28;20396;-62
2022/08/01 04:51:18;;;;;;;3.50;1.30;;;;;;;30.73;25.51;100727.50;5008002;28;20392;-62
2022/08/01 04:53:48;;;;;;;4.88;1.50;;;;;;;31.14;24.62;100718.44;4991308;28;20480;-64
2022/08/01 04:56:13;;;;;;;3.42;1.48;;;;;;;31.42;24.25;100716.41;4991182;28;20791;-60
2022/08/01 04:58:43;;;;;;;3.57;1.40;;;;;;;31.83;24.06;100726.38;4990809;28;20903;-63
2022/08/01 05:01:10;;;;;;;3.17;1.57;;;;;;;32.13;23.20;100722.06;4990817;28;20912;-60
2022/08/01 05:03:36;;;;;;;3.33;1.40;;;;;;;32.67;22.49;100727.47;4984558;28;20842;-61
2022/08/01 05:06:03;;;;;;;2.47;1.30;;;;;;;33.62;21.43;100716.84;4991232;28;20408;-61
2022/08/01 05:08:28;;;;;;;2.65;1.20;;;;;;;35.03;19.82;100711.25;4990847;28;20807;-61
2022/08/01 05:10:54;;;;;;;2.93;1.40;;;;;;;37.17;17.88;100706.97;4990164;28;20493;-62
2022/08/01 05:13:20;;;;;;;5.60;1.60;;;;;;;39.63;15.65;100697.72;4988286;28;20409;-62
2022/08/01 05:15:45;;;;;;;3.17;1.20;;;;;;;41.64;13.84;100689.44;4990088;28;20843;-61
2022/08/01 05:18:11;;;;;;;4.20;1.40;;;;;;;42.71;12.90;100694.22;4990818;28;20916;-61
2022/08/01 05:20:36;;;;;;;4.60;1.60;;;;;;;43.27;12.35;100694.84;4991116;28;20406;-61
2022/08/01 05:23:05;;;;;;;2.03;1.40;;;;;;;42.58;12.53;100702.94;4990758;28;20402;-61
2022/08/01 05:25:31;;;;;;;2.47;1.40;;;;;;;42.31;12.77;100690.41;4990962;28;20410;-62
2022/08/01 05:27:56;;;;;;;3.20;1.30;;;;;;;43.55;11.75;100693.34;4991189;28;20416;-62
2022/08/01 05:30:22;;;;;;;3.07;1.33;;;;;;;45.23;10.80;100690.19;4989107;28;20413;-64
2022/08/01 05:32:47;;;;;;;3.53;1.50;;;;;;;46.80;9.89;100685.59;4990438;28;20780;-62
2022/08/01 05:35:13;;;;;;;5.80;1.30;;;;;;;47.55;9.40;100692.19;4990803;28;20839;-62
2022/08/01 05:37:38;;;;;;;3.17;1.58;;;;;;;48.57;9.10;100678.72;4991377;28;20418;-61
2022/08/01 05:40:05;;;;;;;3.27;1.07;;;;;;;49.53;8.17;100683.44;4991687;28;20433;-61
2022/08/01 05:42:30;;;;;;;2.63;1.73;;;;;;;50.43;8.11;100698.75;4989394;28;20791;-61
2022/08/01 05:44:56;;;;;;;2.57;1.60;;;;;;;51.00;7.52;100687.03;4991779;28;20393;-62
2022/08/01 05:47:21;;;;;;;4.88;1.60;;;;;;;51.76;6.90;100694.66;4990180;28;20414;-62
2022/08/01 05:49:46;;;;;;;3.03;1.50;;;;;;;52.70;6.53;100688.50;4989235;28;20911;-61
2022/08/01 05:52:12;;;;;;;3.90;1.70;;;;;;;53.61;5.62;100687.28;4997863;28;20424;-62
2022/08/01 05:54:38;;;;;;;3.38;1.60;;;;;;;54.67;5.62;100690.66;4991066;28;20888;-61
2022/08/01 05:57:04;;;;;;;2.95;1.60;;;;;;;55.21;5.29;100690.91;4988461;28;20465;-60
2022/08/01 05:59:30;;;;;;;4.63;1.70;;;;;;;56.01;4.58;100681.97;4995808;28;20411;-61
2022/08/01 06:01:56;;;;;;;1.58;1.40;;;;;;;56.41;4.40;100689.19;4989839;28;20402;-60
2022/08/01 06:04:21;;;;;;;2.55;1.55;;;;;;;57.17;4.07;100680.81;4988928;28;20412;-60
2022/08/01 06:06:47;;;;;;;4.10;1.77;;;;;;;58.16;3.39;100672.41;4989714;28;20401;-61
2022/08/01 06:09:13;;;;;;;4.07;1.70;;;;;;;58.67;3.29;100669.22;4990863;28;20780;-61
2022/08/01 06:11:38;;;;;;;2.33;1.73;;;;;;;59.47;3.27;100674.09;4989674;28;20501;-61
2022/08/01 06:14:04;;;;;;;3.13;1.90;;;;;;;59.82;3.26;100684.34;4990825;28;20401;-60
2022/08/01 06:16:30;;;;;;;2.00;1.80;;;;;;;59.93;2.72;100683.59;4989980;28;20500;-61
2022/08/01 06:18:55;;;;;;;3.00;1.67;;;;;;;60.38;2.53;100677.91;4989624;28;20780;-62
2022/08/01 06:21:21;;;;;;;5.03;1.77;;;;;;;60.98;2.26;100689.03;4985303;28;22180;-62
2022/08/01 06:23:46;;;;;;;3.10;2.00;;;;;;;61.61;2.52;100681.00;4987851;28;20408;-61
2022/08/01 06:26:12;;;;;;;5.15;2.00;;;;;;;62.17;2.12;100666.28;4986965;28;20960;-62
2022/08/01 06:28:38;;;;;;;2.87;2.03;;;;;;;62.24;1.79;100667.78;4988888;28;20398;-64
2022/08/01 06:31:04;;;;;;;3.08;1.88;;;;;;;62.35;1.43;100667.69;4989151;28;20436;-63
2022/08/01 06:33:30;;;;;;;3.22;1.80;;;;;;;62.43;1.38;100667.88;4990681;28;20443;-62
2022/08/01 06:35:56;;;;;;;2.77;2.17;;;;;;;62.39;1.85;100665.28;4988740;28;20772;-63
2022/08/01 06:38:21;;;;;;;4.07;2.08;;;;;;;62.49;1.62;100662.84;4990435;28;20911;-63
2022/08/01 06:40:47;;;;;;;5.00;2.17;;;;;;;62.73;1.62;100653.50;5000003;28;20396;-63
2022/08/01 06:43:13;;;;;;;4.23;2.40;;;;;;;62.11;2.06;100657.66;4989148;28;20484;-62
2022/08/01 06:45:39;;;;;;;2.83;2.40;;;;;;;62.56;1.37;100653.63;4990487;28;20394;-63
2022/08/01 06:48:05;;;;;;;2.88;2.38;;;;;;;62.84;1.79;100667.72;4990660;28;20394;-62
2022/08/01 06:50:31;;;;;;;2.45;2.10;;;;;;;62.18;1.83;100649.81;4990319;28;20443;-63
2022/08/01 06:52:57;;;;;;;2.63;2.40;;;;;;;61.82;1.92;100647.72;4990069;28;20401;-63
2022/08/01 06:55:22;;;;;;;3.00;2.33;;;;;;;62.20;1.92;100652.94;4990658;28;20811;-63
2022/08/01 06:57:52;;;;;;;2.63;2.20;;;;;;;62.16;2.04;100632.38;4990765;28;20453;-63
2022/08/01 07:00:22;;;;;;;4.30;2.40;;;;;;;61.95;2.08;100632.75;4991109;28;20879;-63
2022/08/01 07:02:58;;;;;;;2.70;2.30;;;;;;;61.43;2.35;100628.69;4984520;28;20509;-65
2022/08/01 07:05:24;;;;;;;3.78;2.50;;;;;;;61.13;2.44;100632.19;4979972;28;20424;-63
2022/08/01 07:07:50;;;;;;;4.20;2.30;;;;;;;60.89;2.35;100634.88;4983781;28;20405;-63
2022/08/01 07:10:16;;;;;;;4.20;2.25;;;;;;;60.86;2.19;100630.97;4982993;28;20416;-63
2022/08/01 07:12:41;;;;;;;3.85;2.40;;;;;;;61.30;1.94;100629.25;4983665;28;20434;-63
2022/08/01 07:15:08;;;;;;;2.80;2.60;;;;;;;61.05;2.57;100631.19;4982106;28;20484;-64
2022/08/01 07:17:39;;;;;;;2.95;2.38;;;;;;;60.00;2.59;100631.56;4983359;28;20437;-63
2022/08/01 07:20:09;;;;;;;3.97;2.07;;;;;;;55.54;4.17;100639.72;4983206;28;20416;-64
2022/08/01 07:22:35;;;;;;;2.00;1.70;;;;;;;49.62;7.83;100641.34;4983709;28;20412;-64
2022/08/01 07:25:00;;;;;;;1.53;1.33;;;;;;;46.33;9.52;100672.13;4980738;28;20441;-65
2022/08/01 07:27:26;;;;;;;1.80;1.20;;;;;;;44.05;11.24;100659.84;4980876;28;20495;-65
2022/08/01 07:29:51;;;;;;;2.80;1.20;;;;;;;42.25;12.46;100683.59;4983815;28;20402;-64
2022/08/01 07:32:16;;;;;;;2.03;1.17;;;;;;;41.20;13.50;100687.38;4983572;28;20447;-65
2022/08/01 07:34:42;;;;;;;2.03;1.00;;;;;;;39.97;14.26;100682.09;4985088;28;20413;-65
2022/08/01 07:37:07;;;;;;;2.00;0.90;;;;;;;39.46;15.00;100690.69;4987945;28;20891;-64
2022/08/01 07:39:33;;;;;;;1.53;1.00;;;;;;;38.62;15.78;100685.38;4987752;28;20401;-64
2022/08/01 07:41:58;;;;;;;3.17;1.10;;;;;;;37.83;16.44;100704.81;4986727;28;20409;-64
2022/08/01 07:44:24;;;;;;;3.30;1.00;;;;;;;37.28;16.78;100699.00;4986146;28;20784;-64
2022/08/01 07:46:49;;;;;;;1.77;1.00;;;;;;;36.69;17.69;100701.19;4986894;28;20410;-65
2022/08/01 07:49:15;;;;;;;2.53;1.00;;;;;;;36.39;18.17;100700.63;4987954;28;20393;-65
2022/08/01 07:51:41;;;;;;;2.13;1.00;;;;;;;36.02;18.76;100700.59;4984907;28;20413;-65
2022/08/01 07:54:07;;;;;;;2.20;1.00;;;;;;;35.49;19.46;100702.28;4985957;28;20401;-65
2022/08/01 07:56:33;;;;;;;2.53;0.80;;;;;;;35.00;19.66;100711.91;4987129;28;20429;-65
2022/08/01 07:58:58;;;;;;;5.40;1.00;;;;;;;34.65;20.21;100703.88;4985272;28;20427;-65
2022/08/01 08:01:24;;;;;;;1.25;0.82;;;;;;;34.29;20.74;100701.66;4987376;28;20425;-64
2022/08/01 08:03:49;;;;;;;0.95;0.75;;;;;;;34.08;21.02;100696.84;4986430;28;20456;-64
2022/08/01 08:06:15;;;;;;;0.90;0.80;;;;;;;34.16;21.25;100695.22;4985374;28;20435;-65
2022/08/01 08:08:40;;;;;;;1.73;0.90;;;;;;;33.90;21.33;100693.34;4987961;28;20405;-65
2022/08/01 08:11:06;;;;;;;3.10;1.00;;;;;;;33.85;21.60;100687.22;4984183;28;20429;-65
2022/08/01 08:13:31;;;;;;;2.88;0.93;;;;;;;33.67;21.69;100692.78;4986071;28;20402;-64
2022/08/01 08:15:58;;;;;;;1.60;0.82;;;;;;;33.37;22.02;100702.00;4987752;28;20505;-65
2022/08/01 08:18:24;;;;;;;1.60;0.90;;;;;;;33.36;22.11;100681.16;4987214;28;20433;-64
2022/08/01 08:20:49;;;;;;;1.70;0.90;;;;;;;33.28;22.52;100705.56;4984184;28;20424;-67
2022/08/01 08:25:59;;;;;;;1.90;1.00;;;;;;;33.17;22.65;100711.72;4984179;28;20428;-64
2022/08/01 08:28:25;;;;;;;3.45;0.90;;;;;;;33.09;22.56;100708.59;4981887;28;20409;-66
2022/08/01 08:30:50;;;;;;;1.70;1.03;;;;;;;33.20;22.49;100695.38;4983460;28;20478;-65
2022/08/01 08:33:16;;;;;;;2.33;0.90;;;;;;;33.30;22.61;100708.81;4992474;28;20410;-65
2022/08/01 08:35:41;;;;;;;2.00;1.00;;;;;;;33.29;22.89;100701.69;4980204;28;20409;-66
2022/08/01 08:38:28;;;;;;;3.47;1.20;;;;;;;33.34;22.88;100700.72;5062562;28;20809;-67
2022/08/01 08:40:55;;;;;;;4.57;1.00;;;;;;;33.41;22.88;100689.25;5051226;28;20481;-67
2022/08/01 08:43:21;;;;;;;1.60;0.70;;;;;;;33.51;22.98;100706.22;5055395;28;20450;-67
2022/08/01 08:45:48;;;;;;;1.08;0.90;;;;;;;33.44;22.94;100699.56;5054443;28;20443;-67
2022/08/01 08:48:13;;;;;;;2.03;1.00;;;;;;;33.41;23.11;100700.25;5060621;28;20395;-67
2022/08/01 08:50:43;;;;;;;2.58;0.90;;;;;;;33.08;23.19;100708.94;5051652;28;20395;-65
2022/08/01 08:53:09;;;;;;;3.20;0.67;;;;;;;32.91;23.23;100710.53;5053048;28;20417;-67
2022/08/01 08:55:37;;;;;;;2.03;0.60;;;;;;;32.89;23.72;100706.50;5048197;28;20484;-67
2022/08/01 08:58:05;;;;;;;2.70;0.70;;;;;;;32.89;23.62;100712.78;5055990;28;20501;-66
2022/08/01 09:00:32;;;;;;;1.17;0.77;;;;;;;32.86;23.62;100709.88;5051766;28;20771;-67
2022/08/01 09:02:57;;;;;;;1.90;0.60;;;;;;;32.79;23.41;100706.81;5054486;28;20431;-67
2022/08/01 09:05:26;;;;;;;3.17;0.65;;;;;;;32.89;23.53;100701.00;5051686;28;20832;-67
2022/08/01 09:07:52;;;;;;;3.70;1.20;;;;;;;32.89;23.58;100704.56;5059249;28;20384;-65
2022/08/01 09:10:18;;;;;;;1.10;0.60;;;;;;;32.94;23.51;100701.66;5049020;28;20413;-68
2022/08/01 09:13:21;;;;;;;2.15;0.73;;;;;;;32.67;23.65;100688.22;5058069;28;20399;-67
2022/08/01 09:15:53;;;;;;;1.05;0.60;;;;;;;32.93;23.50;100694.53;5009109;28;20770;-67
2022/08/01 09:18:40;;;;;;;3.28;0.80;;;;;;;33.00;23.36;100691.31;5012322;28;20898;-67
2022/08/01 09:21:05;;;;;;;1.35;0.50;;;;;;;32.93;23.68;100697.28;5034254;28;20517;-67
2022/08/01 09:23:32;;;;;;;2.37;0.70;;;;;;;32.96;23.45;100685.66;5050864;28;20413;-67
2022/08/01 09:25:58;;;;;;;1.20;0.50;;;;;;;32.86;23.52;100688.75;5055940;28;20401;-67
2022/08/01 09:28:29;;;;;;;1.63;0.60;;;;;;;32.74;23.64;100685.81;5059536;28;20493;-68
2022/08/01 09:30:58;;;;;;;0.57;0.57;;;;;;;32.79;23.69;100687.59;5049601;28;20441;-67
2022/08/01 09:33:24;;;;;;;0.63;0.60;;;;;;;32.98;23.29;100679.84;5051671;28;20406;-66
2022/08/01 09:35:57;;;;;;;3.00;0.60;;;;;;;32.98;23.75;100682.59;5054068;28;20399;-67
2022/08/01 09:38:26;;;;;;;1.98;0.60;;;;;;;33.03;23.41;100687.94;5070720;28;21036;-67
2022/08/01 09:40:54;;;;;;;1.92;0.60;;;;;;;32.93;23.61;100669.03;5075291;28;20405;-67
2022/08/01 09:43:21;;;;;;;0.70;0.40;;;;;;;32.88;23.28;100672.75;5069407;28;20408;-67
2022/08/01 09:45:47;;;;;;;2.00;0.50;;;;;;;33.01;23.20;100672.91;5075717;28;20421;-67
2022/08/01 09:48:13;;;;;;;1.30;0.50;;;;;;;33.07;23.40;100672.44;5071634;28;20748;-65
2022/08/01 09:50:43;;;;;;;1.70;0.80;;;;;;;33.09;23.50;100672.91;5060659;28;20403;-67
2022/08/01 09:53:10;;;;;;;5.70;0.50;;;;;;;32.89;23.18;100677.09;5058453;28;20401;-66
2022/08/01 09:55:37;;;;;;;2.15;0.60;;;;;;;32.78;23.87;100675.00;5062069;28;20398;-66
2022/08/01 09:58:04;;;;;;;0.60;0.50;;;;;;;32.79;23.68;100673.84;5041027;28;20415;-67
2022/08/01 10:00:30;;;;;;;2.60;0.70;;;;;;;32.76;23.92;100670.63;5060699;28;20806;-67
2022/08/01 10:02:56;;;;;;;1.02;0.60;;;;;;;32.75;24.17;100677.28;5063025;28;20383;-67
2022/08/01 10:05:35;;;;;;;2.17;0.70;;;;;;;32.79;23.92;100679.34;5045746;28;20967;-67
2022/08/01 10:08:03;;;;;;;1.33;0.50;;;;;;;32.83;23.65;100669.38;5047127;28;20745;-66
2022/08/01 10:10:30;;;;;;;3.47;0.80;;;;;;;32.72;23.89;100666.94;5047461;28;20898;-67
2022/08/01 10:12:57;;;;;;;2.00;0.70;;;;;;;32.69;24.04;100670.31;5046055;28;20989;-65
2022/08/01 10:15:25;;;;;;;2.00;0.70;;;;;;;32.71;23.97;100661.75;5048143;28;20385;-68
2022/08/01 10:17:58;;;;;;;2.65;0.80;;;;;;;32.74;24.13;100664.66;5030485;28;20440;-67
2022/08/01 10:20:29;;;;;;;1.10;0.70;;;;;;;32.76;24.23;100662.41;5046141;28;20413;-68
2022/08/01 10:22:59;;;;;;;2.85;0.77;;;;;;;32.83;24.40;100669.38;5046727;28;20415;-67
2022/08/01 10:25:28;;;;;;;3.20;0.77;;;;;;;32.87;23.82;100670.31;5046623;28;20411;-67
2022/08/01 10:27:56;;;;;;;0.90;0.70;;;;;;;32.74;24.14;100653.69;5048419;28;20772;-68
2022/08/01 10:30:23;;;;;;;1.48;0.63;;;;;;;32.75;24.37;100662.72;5045016;28;20405;-67
2022/08/01 10:32:51;;;;;;;2.67;0.60;;;;;;;32.81;24.05;100650.47;5047125;28;20539;-67
2022/08/01 10:35:18;;;;;;;2.83;0.60;;;;;;;32.77;24.20;100660.44;5047357;28;20795;-67
2022/08/01 10:37:45;;;;;;;1.00;0.68;;;;;;;32.78;24.62;100655.78;5049436;28;20787;-67
2022/08/01 10:40:15;;;;;;;0.73;0.50;;;;;;;32.82;24.12;100667.72;5046895;28;20874;-68
2022/08/01 10:42:45;;;;;;;1.95;0.70;;;;;;;32.90;24.31;100654.03;5049398;28;20412;-68
2022/08/01 10:45:13;;;;;;;1.73;0.63;;;;;;;32.95;23.93;100651.13;5029289;28;20409;-68
2022/08/01 10:47:53;;;;;;;1.80;0.88;;;;;;;33.01;24.17;100667.41;5047270;28;20813;-67
2022/08/01 10:50:31;;;;;;;1.63;0.70;;;;;;;32.91;23.88;100663.84;5043641;28;20921;-67
2022/08/01 10:53:16;;;;;;;0.82;0.68;;;;;;;32.78;24.29;100662.09;5050394;28;21956;-68
2022/08/01 10:55:56;;;;;;;2.20;0.60;;;;;;;32.84;24.10;100652.53;5047931;28;20931;-67
2022/08/01 10:58:29;;;;;;;2.70;0.80;;;;;;;32.96;24.42;100660.16;5047919;28;20416;-68
2022/08/01 11:01:23;;;;;;;2.03;0.80;;;;;;;33.06;24.28;100650.78;5028342;28;20400;-69
2022/08/01 11:03:55;;;;;;;1.35;0.63;;;;;;;33.05;24.46;100660.97;5048538;28;20475;-69
2022/08/01 11:06:25;;;;;;;1.50;0.50;;;;;;;32.95;24.45;100662.09;5047940;28;20806;-68
2022/08/01 11:08:53;;;;;;;1.80;0.70;;;;;;;32.99;24.47;100659.50;5049089;28;20380;-68
2022/08/01 11:11:21;;;;;;;1.70;0.60;;;;;;;32.91;24.09;100644.63;5046984;28;20400;-68
2022/08/01 11:14:12;;;;;;;1.30;0.60;;;;;;;33.03;23.89;100665.16;5047365;28;20396;-68
2022/08/01 11:16:39;;;;;;;4.70;0.68;;;;;;;33.15;23.93;100646.09;5049226;28;20416;-67
2022/08/01 11:19:08;;;;;;;1.27;0.70;;;;;;;33.26;24.11;100646.59;5047997;28;20845;-68
2022/08/01 11:21:52;;;;;;;1.45;0.90;;;;;;;33.30;24.45;100636.56;5047472;28;20404;-67
2022/08/01 11:24:48;;;;;;;3.40;0.77;;;;;;;33.32;24.22;100645.28;5045818;28;20408;-67
2022/08/01 11:27:32;;;;;;;0.82;0.70;;;;;;;33.27;24.28;100640.75;5045973;28;20400;-66
2022/08/01 11:30:10;;;;;;;1.93;0.90;;;;;;;33.28;24.28;100638.84;5046584;28;20401;-67
2022/08/01 11:32:48;;;;;;;1.47;0.60;;;;;;;33.17;24.47;100634.78;5050233;28;20420;-66
2022/08/01 11:35:15;;;;;;;2.92;0.63;;;;;;;33.08;24.21;100649.34;5047258;28;20900;-66
2022/08/01 11:37:40;;;;;;;3.53;0.70;;;;;;;33.04;24.23;100644.81;5044273;28;20416;-66